Data for 05/11/2008

Time Sea-Level Adjusted Pressure Absolute Pressure Temperature Relative Humidity Dew Point   
(mb) (inHg) (mb) (inHg) (C) (F) (%) (C) (F)
00:05 1015 29.97 844 24.92 8.1 46.6 45 -3 26.5
00:10 1015 29.97 844 24.92 8.1 46.6 45 -3.1 26.4
00:15 1015 29.97 844 24.92 8.2 46.7 43 -3.7 25.4
00:20 1015 29.97 844 24.92 8.4 47.1 43 -3.4 25.8
00:25 1015 29.97 844 24.92 8.2 46.7 45 -3 26.6
00:30 1015 29.97 844 24.92 7.9 46.3 45 -3.1 26.4
00:35 1015 29.97 844 24.92 8 46.3 45 -3.4 26
00:40 1015 29.97 844 24.92 8.2 46.7 44 -3.3 26
00:45 1015 29.97 844 24.92 8.2 46.8 43 -3.6 25.6
00:50 1015 29.97 844 24.92 8.4 47.1 44 -3.3 26.1
00:55 1015 29.97 844 24.92 8.4 47 44 -3.2 26.3
01:00 1014 29.94 844 24.92 8.2 46.7 45 -3.2 26.3
01:05 1014 29.94 844 24.92 8 46.4 44 -3.4 25.9
01:10 1014 29.94 844 24.92 7.9 46.2 45 -3.4 25.9
01:15 1014 29.94 844 24.92 7.9 46.2 45 -3.4 25.9
01:20 1014 29.94 843 24.89 7.8 46 46 -3.1 26.4
01:25 1014 29.94 843 24.89 7.6 45.7 46 -3.3 26
01:30 1014 29.94 843 24.89 7.6 45.7 46 -3.3 26.1
01:35 1014 29.94 843 24.89 7.7 45.8 44 -3.7 25.3
01:40 1014 29.94 843 24.89 7.9 46.3 45 -3.1 26.4
01:45 1014 29.94 843 24.89 7.8 46.1 47 -2.7 27.1
01:50 1013 29.91 843 24.89 7.6 45.6 49 -2.3 27.8
01:55 1013 29.91 843 24.89 7.4 45.2 50 -2.5 27.6
02:00 1013 29.91 843 24.89 7.3 45.2 50 -2.4 27.7
02:05 1013 29.91 842 24.86 7.3 45.1 51 -2.3 27.8
02:10 1013 29.91 842 24.86 7.2 45 50 -2.5 27.5
02:15 1013 29.91 842 24.86 7.2 45 50 -2.4 27.7
02:20 1013 29.91 842 24.86 7.2 44.9 50 -2.5 27.5
02:25 1013 29.91 842 24.86 7.2 44.9 50 -2.5 27.4
02:30 1013 29.91 842 24.86 7.1 44.9 49 -2.7 27.1
02:35 1013 29.91 842 24.86 7.2 44.9 50 -2.6 27.2
02:40 1013 29.91 842 24.86 7.2 44.9 49 -2.9 26.8
02:45 1013 29.91 842 24.86 7.3 45.1 48 -2.9 26.7
02:50 1013 29.91 842 24.86 7.2 45 49 -2.8 26.9
02:55 1013 29.91 842 24.86 7 44.7 50 -2.8 27
03:00 1013 29.91 842 24.86 6.9 44.5 50 -2.8 26.9
03:05 1013 29.91 842 24.86 6.9 44.4 50 -2.7 27.2
03:10 1013 29.91 842 24.86 6.7 44.1 51 -2.6 27.3
03:15 1013 29.91 842 24.86 6.6 43.9 50 -3 26.5
03:20 1013 29.91 842 24.86 6.8 44.2 50 -2.9 26.8
03:25 1013 29.91 842 24.86 6.8 44.2 50 -3 26.6
03:30 1013 29.91 842 24.86 6.7 44.1 50 -2.9 26.8
03:35 1013 29.91 842 24.86 6.5 43.7 52 -2.6 27.3
03:40 1013 29.91 842 24.86 6.2 43.1 53 -2.7 27.1
03:45 1013 29.91 842 24.86 6.1 43 53 -2.8 27
03:50 1013 29.91 842 24.86 6.1 43 53 -2.7 27.1
03:55 1012 29.88 842 24.86 6.1 43 53 -2.8 26.9
04:00 1012 29.88 842 24.86 6.2 43.1 52 -2.9 26.7
04:05 1012 29.88 841 24.83 6.3 43.3 51 -3 26.6
04:10 1012 29.88 841 24.83 6.4 43.5 51 -3 26.6
04:15 1012 29.88 841 24.83 6.3 43.4 52 -2.8 27
04:20 1012 29.88 841 24.83 6.2 43.2 51 -3.1 26.4
04:25 1012 29.88 841 24.83 6.3 43.4 50 -3.3 26
04:30 1012 29.88 841 24.83 6.6 43.9 48 -3.7 25.3
04:35 1012 29.88 841 24.83 6.9 44.5 46 -3.8 25.2
04:40 1012 29.88 841 24.83 7.1 44.7 46 -3.8 25.1
04:45 1012 29.88 841 24.83 7.1 44.9 48 -3.1 26.5
04:50 1012 29.88 841 24.83 6.7 44.1 51 -2.8 27
04:55 1012 29.88 841 24.83 6.4 43.5 50 -3.1 26.4
05:00 1012 29.88 841 24.83 6.4 43.4 50 -3.3 26.1
05:05 1012 29.88 841 24.83 6.4 43.5 50 -3.3 26.1
05:10 1011 29.85 841 24.83 6.4 43.4 50 -3.3 26
05:15 1012 29.88 841 24.83 6.3 43.3 50 -3.3 26.1
05:20 1012 29.88 841 24.83 6.2 43.2 50 -3.4 26
05:25 1011 29.85 841 24.83 6.3 43.3 49 -3.5 25.7
05:30 1011 29.85 841 24.83 6.4 43.5 49 -3.5 25.7
05:35 1011 29.85 841 24.83 6.4 43.6 49 -3.5 25.8
05:40 1011 29.85 840 24.81 6.5 43.7 48 -3.7 25.3
05:45 1011 29.85 840 24.81 6.7 44 48 -3.7 25.4
05:50 1011 29.85 840 24.81 6.8 44.2 48 -3.6 25.6
05:55 1011 29.85 840 24.81 6.7 44.1 48 -3.6 25.5
06:00 1011 29.85 840 24.81 6.8 44.3 47 -3.8 25.2
06:05 1011 29.85 840 24.81 6.9 44.5 47 -3.7 25.4
06:10 1011 29.85 840 24.81 6.9 44.4 47 -3.6 25.4
06:15 1011 29.85 840 24.81 6.9 44.5 46 -3.7 25.3
06:20 1011 29.85 840 24.81 7.1 44.9 45 -3.9 25
06:25 1011 29.85 840 24.81 7.3 45.1 45 -3.7 25.3
06:30 1011 29.85 840 24.81 7.3 45.2 45 -3.7 25.3
06:35 1011 29.85 840 24.81 7.5 45.4 44 -3.9 25
06:40 1011 29.85 840 24.81 7.6 45.7 44 -3.9 24.9
06:45 1011 29.85 840 24.81 7.8 46 43 -4 24.8
06:50 1011 29.85 840 24.81 8 46.3 42 -4.1 24.6
06:55 1011 29.85 840 24.81 8.1 46.6 42 -4.2 24.5
07:00 1011 29.85 840 24.81 8.2 46.8 42 -4.1 24.6
07:05 1011 29.85 840 24.81 8.2 46.8 44 -3.4 25.9
07:10 1011 29.85 840 24.81 8 46.5 45 -3 26.6
07:15 1011 29.85 840 24.81 7.7 45.9 47 -3 26.6
07:20 1011 29.85 840 24.81 7.7 45.8 46 -3.2 26.2
07:25 1011 29.85 840 24.81 7.8 46 46 -3 26.6
07:30 1011 29.85 840 24.81 7.8 46 47 -3 26.7
07:35 1011 29.85 840 24.81 7.9 46.1 46 -3 26.6
07:40 1011 29.85 840 24.81 8.1 46.5 46 -2.9 26.8
07:45 1011 29.85 840 24.81 8.2 46.8 45 -2.9 26.7
07:50 1011 29.85 840 24.81 8.4 47.1 45 -2.8 27
07:55 1010 29.83 840 24.81 8.6 47.5 44 -2.9 26.8
08:00 1010 29.83 840 24.81 8.8 47.9 44 -2.8 26.9
08:05 1010 29.83 840 24.81 8.9 48 44 -2.6 27.4
08:10 1010 29.83 840 24.81 8.9 48.1 44 -2.5 27.4
08:15 1010 29.83 840 24.81 9.2 48.6 44 -2.5 27.5
08:20 1010 29.83 839 24.78 9.8 49.6 42 -2.6 27.4
08:25 1010 29.83 839 24.78 10.3 50.6 41 -2.5 27.6
08:30 1010 29.83 839 24.78 10.4 50.8 41 -2.2 28
08:35 1010 29.83 839 24.78 10.9 51.5 39 -2.4 27.8
08:40 1010 29.83 839 24.78 11.1 52 40 -2 28.4
08:45 1010 29.83 839 24.78 11 51.7 41 -1.8 28.8
08:50 1010 29.83 839 24.78 11 51.7 41 -1.7 28.9
08:55 1010 29.83 839 24.78 11.3 52.3 39 -2 28.4
09:00 1010 29.83 839 24.78 11.5 52.8 39 -2 28.4
09:05 1010 29.83 839 24.78 11.7 53 38 -2.1 28.3
09:10 1010 29.83 839 24.78 11.9 53.4 37 -2.4 27.6
09:15 1010 29.83 839 24.78 12 53.5 38 -1.9 28.6
09:20 1010 29.83 839 24.78 12 53.5 39 -1.5 29.2
09:25 1010 29.83 839 24.78 11.8 53.3 42 -0.7 30.8
09:30 1010 29.83 839 24.78 12 53.5 40 -1.2 29.9
09:35 1010 29.83 839 24.78 12.4 54.3 39 -1 30.2
09:40 1009 29.8 839 24.78 12.7 54.9 38 -1.1 30.1
09:45 1009 29.8 839 24.78 12.7 54.9 37 -1.5 29.3
09:50 1009 29.8 839 24.78 12.9 55.3 35 -2 28.4
09:55 1009 29.8 838 24.75 12.9 55.3 34 -2.7 27.2
10:00 1009 29.8 838 24.75 12.8 55.1 38 -1.1 30
10:05 1009 29.8 838 24.75 12.8 55.1 38 -1.2 29.8
10:10 1009 29.8 838 24.75 13.8 56.8 34 -1.7 28.9
10:15 1009 29.8 838 24.75 14.2 57.6 33 -1.8 28.7
10:20 1009 29.8 838 24.75 14.5 58.2 28 -3.9 25
10:25 1009 29.8 838 24.75 14.8 58.6 25 -4.7 23.5
10:30 1009 29.8 838 24.75 14.8 58.7 26 -4.5 23.9
10:35 1009 29.8 838 24.75 14.9 58.9 24 -5.5 22
10:40 1009 29.8 838 24.75 14.9 58.7 24 -5.4 22.4
10:45 1009 29.8 838 24.75 14.8 58.7 26 -4.6 23.7
10:50 1009 29.8 838 24.75 14.8 58.7 25 -4.9 23.2
10:55 1009 29.8 838 24.75 14.8 58.7 25 -4.8 23.3
11:00 1009 29.8 838 24.75 14.8 58.6 25 -4.9 23.1
11:05 1009 29.8 838 24.75 14.8 58.7 25 -4.7 23.5
11:10 1009 29.8 838 24.75 15 58.9 29 -2.9 26.8
11:15 1009 29.8 838 24.75 15 58.9 29 -2.7 27.1
11:20 1009 29.8 838 24.75 15 59.1 30 -2.2 28
11:25 1009 29.8 838 24.75 15.2 59.3 30 -2.3 27.8
11:30 1008 29.77 838 24.75 15.5 60 28 -2.6 27.3
11:35 1008 29.77 838 24.75 15.5 59.8 29 -2.5 27.5
11:40 1008 29.77 838 24.75 15.2 59.4 28 -3.2 26.2
11:45 1008 29.77 837 24.72 15.1 59.1 28 -3.2 26.3
11:50 1008 29.77 837 24.72 15.3 59.5 27 -3.6 25.5
11:55 1008 29.77 837 24.72 15.4 59.8 27 -3.6 25.5
12:00 1008 29.77 837 24.72 15.7 60.3 28 -2.7 27.1
12:05 1008 29.77 837 24.72 15.7 60.3 26 -3.4 25.8
12:10 1008 29.77 837 24.72 15.6 60 27 -3.5 25.8
12:15 1008 29.77 837 24.72 15.5 60 27 -3.4 26
12:20 1008 29.77 837 24.72 15.5 59.9 27 -3.5 25.7
12:25 1008 29.77 837 24.72 15.6 60 27 -3.2 26.2
12:30 1008 29.77 837 24.72 15.7 60.3 24 -4.6 23.8
12:35 1008 29.77 837 24.72 15.8 60.4 25 -3.9 25
12:40 1008 29.77 837 24.72 15.8 60.5 26 -3.4 25.8
12:45 1007 29.74 837 24.72 15.9 60.7 24 -4.3 24.3
12:50 1007 29.74 837 24.72 16 60.9 24 -4.3 24.3
12:55 1007 29.74 836 24.69 16.1 61 24 -4.4 24
13:00 1007 29.74 836 24.69 16.3 61.3 23 -4.8 23.4
13:05 1007 29.74 836 24.69 16.5 61.8 22 -5.2 22.6
13:10 1007 29.74 836 24.69 16.6 61.8 22 -5 23.1
13:15 1007 29.74 836 24.69 16.5 61.6 22 -5.3 22.4
13:20 1007 29.74 836 24.69 16.4 61.5 23 -4.9 23.2
13:25 1007 29.74 836 24.69 16.3 61.3 24 -4.5 23.9
13:30 1007 29.74 836 24.69 16 60.9 23 -5 23
13:35 1007 29.74 836 24.69 16 60.7 24 -4.3 24.3
13:40 1007 29.74 836 24.69 15.8 60.4 27 -3.1 26.4
13:45 1007 29.74 836 24.69 15.5 59.9 29 -2.4 27.6
13:50 1007 29.74 836 24.69 15.5 59.8 28 -3 26.7
13:55 1007 29.74 836 24.69 15.5 59.9 28 -2.9 26.8
14:00 1007 29.74 836 24.69 15.4 59.8 29 -2.6 27.3
14:05 1007 29.74 836 24.69 15.4 59.6 28 -2.9 26.8
14:10 1007 29.74 836 24.69 15.2 59.3 29 -2.8 27
14:15 1007 29.74 836 24.69 15.1 59.2 29 -2.6 27.3
14:20 1007 29.74 836 24.69 15.1 59.2 30 -2.1 28.2
14:25 1007 29.74 836 24.69 14.9 58.8 32 -1.7 29
14:30 1007 29.74 836 24.69 14.8 58.6 32 -1.7 29
14:35 1007 29.74 836 24.69 15 58.9 31 -1.7 28.9
14:40 1007 29.74 836 24.69 14.9 58.8 32 -1.4 29.6
14:45 1007 29.74 836 24.69 14.5 58.2 34 -1 30.3
14:50 1007 29.74 836 24.69 14.2 57.5 35 -1 30.2
14:55 1007 29.74 836 24.69 14 57.3 35 -1.1 30.1
15:00 1007 29.74 836 24.69 14 57.1 35 -1 30.2
15:05 1007 29.74 836 24.69 13.9 57 37 -0.6 31
15:10 1007 29.74 837 24.72 13.7 56.6 38 -0.2 31.7
15:15 1008 29.77 837 24.72 13.1 55.6 40 -0.1 31.8
15:20 1008 29.77 837 24.72 12.8 55 41 0.1 32.1
15:25 1008 29.77 837 24.72 12.8 55 45 1.3 34.3
15:30 1008 29.77 837 24.72 11.9 53.3 50 2 35.5
15:35 1008 29.77 837 24.72 11.4 52.6 55 2.7 36.8
15:40 1008 29.77 837 24.72 11 51.9 58 3.2 37.8
15:45 1008 29.77 837 24.72 10.9 51.6 59 3.2 37.8
15:50 1008 29.77 837 24.72 10.8 51.4 59 3.2 37.8
15:55 1008 29.77 837 24.72 10.2 50.4 63 3.6 38.5
16:00 1008 29.77 838 24.75 9.9 49.8 65 3.6 38.4
16:05 1008 29.77 838 24.75 9.7 49.5 66 3.6 38.5
16:10 1009 29.8 838 24.75 9.7 49.4 71 4.6 40.4
16:15 1009 29.8 838 24.75 9.1 48.3 76 5.1 41.2
16:20 1009 29.8 838 24.75 8.3 46.9 76 4.4 39.9
16:25 1009 29.8 838 24.75 8 46.4 82 5.1 41.2
16:30 1009 29.8 838 24.75 7.8 46 85 5.4 41.7
16:35 1009 29.8 838 24.75 7.5 45.5 86 5.4 41.7
16:40 1009 29.8 838 24.75 7.5 45.5 88 5.6 42
16:45 1009 29.8 838 24.75 7.5 45.5 87 5.5 42
16:50 1009 29.8 838 24.75 7.5 45.6 87 5.5 41.9
16:55 1009 29.8 838 24.75 7.4 45.3 85 5 41
17:00 1009 29.8 839 24.78 7.1 44.9 85 4.8 40.6
17:05 1010 29.83 839 24.78 6.9 44.4 85 4.6 40.2
17:10 1010 29.83 839 24.78 6.7 44.1 86 4.5 40.1
17:15 1010 29.83 839 24.78 6.6 43.8 86 4.4 39.9
17:20 1010 29.83 839 24.78 6.4 43.5 84 3.8 38.9
17:25 1010 29.83 839 24.78 6.3 43.4 83 3.7 38.6
17:30 1010 29.83 839 24.78 6.3 43.3 82 3.5 38.2
17:35 1010 29.83 839 24.78 6.3 43.4 82 3.4 38.2
17:40 1010 29.83 839 24.78 6.5 43.8 82 3.6 38.5
17:45 1010 29.83 840 24.81 6.7 44 81 3.7 38.7
17:50 1011 29.85 840 24.81 6.8 44.2 81 3.7 38.6
17:55 1011 29.85 840 24.81 6.7 44 82 3.8 38.9
18:00 1010 29.83 840 24.81 6.4 43.6 84 3.9 39
18:05 1010 29.83 840 24.81 6.2 43.1 85 3.9 39
18:10 1011 29.85 840 24.81 6.2 43.1 83 3.5 38.3
18:15 1011 29.85 840 24.81 6 42.8 87 4 39.2
18:20 1011 29.85 840 24.81 5.7 42.3 89 4.1 39.3
18:25 1011 29.85 840 24.81 5.6 42 91 4.2 39.5
18:30 1011 29.85 840 24.81 5.4 41.7 93 4.3 39.7
18:35 1011 29.85 840 24.81 5.2 41.3 94 4.2 39.6
18:40 1011 29.85 840 24.81 5.2 41.3 94 4.2 39.6
18:45 1011 29.85 840 24.81 5.2 41.3 94 4.3 39.7
18:50 1011 29.85 840 24.81 5.2 41.3 94 4.3 39.8
18:55 1011 29.85 840 24.81 5.1 41.1 94 4.2 39.5
19:00 1011 29.85 840 24.81 5 40.9 94 4.1 39.4
19:05 1011 29.85 840 24.81 5 41 93 4 39.2
19:10 1011 29.85 840 24.81 4.9 40.8 92 3.7 38.6
19:15 1011 29.85 840 24.81 4.9 40.8 91 3.5 38.4
19:20 1011 29.85 840 24.81 5 40.9 91 3.7 38.6
19:25 1011 29.85 840 24.81 5 41 92 3.8 38.8
19:30 1011 29.85 840 24.81 5.1 41.2 91 3.8 38.8
19:35 1011 29.85 840 24.81 5 41.1 90 3.5 38.3
19:40 1011 29.85 840 24.81 4.9 40.9 90 3.4 38.2
19:45 1011 29.85 840 24.81 5 41 88 3.2 37.8
19:50 1011 29.85 840 24.81 4.8 40.7 89 3.2 37.8
19:55 1011 29.85 840 24.81 4.6 40.3 90 3.1 37.6
20:00 1011 29.85 840 24.81 4.7 40.4 90 3.2 37.7
20:05 1011 29.85 840 24.81 4.7 40.5 89 3.1 37.6
20:10 1011 29.85 840 24.81 4.6 40.3 90 3.2 37.7
20:15 1011 29.85 840 24.81 4.7 40.5 90 3.2 37.8
20:20 1011 29.85 840 24.81 4.6 40.2 91 3.2 37.7
20:25 1011 29.85 840 24.81 4.6 40.3 90 3.2 37.7
20:30 1011 29.85 840 24.81 4.5 40.2 91 3.1 37.6
20:35 1011 29.85 840 24.81 4.2 39.6 91 2.9 37.1
20:40 1011 29.85 840 24.81 3.9 39 92 2.8 37
20:45 1011 29.85 840 24.81 3.8 38.9 93 2.7 36.9
20:50 1011 29.85 840 24.81 3.7 38.6 93 2.7 36.9
20:55 1011 29.85 840 24.81 3.6 38.5 93 2.6 36.7
21:00 1011 29.85 840 24.81 3.6 38.4 94 2.7 36.8
21:05 1011 29.85 840 24.81 3.5 38.3 94 2.6 36.7
21:10 1011 29.85 841 24.83 3.3 38 94 2.5 36.5
21:15 1011 29.85 840 24.81 3.3 37.9 95 2.6 36.6
21:20 1011 29.85 840 24.81 3.3 37.9 95 2.6 36.7
21:25 1011 29.85 840 24.81 3.2 37.8 95 2.5 36.5
21:30 1011 29.85 840 24.81 3.2 37.8 95 2.5 36.4
21:35 1011 29.85 840 24.81 3.2 37.8 94 2.4 36.3
21:40 1011 29.85 840 24.81 3.2 37.7 94 2.3 36.1
21:45 1011 29.85 840 24.81 3.2 37.8 94 2.3 36.1
21:50 1011 29.85 840 24.81 3.2 37.7 94 2.3 36.1
21:55 1011 29.85 840 24.81 3.3 37.9 93 2.2 36
22:00 1011 29.85 840 24.81 3.2 37.7 93 2.2 35.9
22:05 1011 29.85 840 24.81 3.3 37.9 93 2.2 35.9
22:10 1011 29.85 840 24.81 3.3 38 93 2.3 36.1
22:15 1011 29.85 840 24.81 3.4 38.1 92 2.3 36.1
22:20 1011 29.85 840 24.81 3.3 38 92 2.2 36
22:25 1010 29.83 840 24.81 3.3 37.9 93 2.2 36
22:30 1010 29.83 840 24.81 3.2 37.8 93 2.2 36
22:35 1010 29.83 840 24.81 3.2 37.7 93 2.2 36
22:40 1011 29.85 840 24.81 3.1 37.6 94 2.2 36
22:45 1011 29.85 840 24.81 3.1 37.5 94 2.2 36
22:50 1011 29.85 840 24.81 3 37.5 94 2.2 36
22:55 1011 29.85 840 24.81 3.1 37.6 94 2.3 36.1
23:00 1011 29.85 840 24.81 3.1 37.6 94 2.3 36.1
23:05 1011 29.85 840 24.81 3.1 37.6 94 2.2 36
23:10 1011 29.85 840 24.81 3.2 37.8 93 2.2 36
23:15 1011 29.85 840 24.81 3.3 37.9 92 2.2 35.9
23:20 1011 29.85 840 24.81 3.4 38.2 92 2.2 36
23:25 1010 29.83 840 24.81 3.6 38.4 92 2.4 36.2
23:30 1010 29.83 839 24.78 3.5 38.3 93 2.4 36.4
23:35 1010 29.83 839 24.78 3.3 37.9 94 2.3 36.2
23:40 1010 29.83 839 24.78 3.2 37.7 94 2.3 36.1
23:45 1010 29.83 839 24.78 3.2 37.7 94 2.3 36.2
23:50 1010 29.83 839 24.78 3.2 37.7 94 2.3 36.2
23:55 1010 29.83 839 24.78 3.2 37.7 94 2.3 36.2
24:00 1010 29.83 840 24.81 3.2 37.7 94 2.3 36.2